NFTF

Details ICAO NFTF (TBU)
Name Fua Amotu Intl
Region Fiji and Tonga
Timezone Pacific/Tongatapu (UTC+14.0)
Plans Departing 51
Arriving 45
Stats Elevation 126 ft / 38 m (AMSL)
Location -21.242493° -175.144569°
Runways 2
Magnetic Variation 13.665° E
Sunrise 2017-12-10 16:53:11 UTC / 2017-12-11 06:53:11 Local
Sunset 2017-12-11 06:16:56 UTC / 2017-12-11 20:16:56 Local
Advertisement - Login to hide

Runways

ID Width Length Bearing (true) Bearing (mag) Surface Threshold Offset Overrun Length
11 148 ft / 45 m 8,967 ft / 2,733 m 122.10° 108.43° Asphalt 0 ft / 0 m 194 ft / 59 m
17 194 ft / 59 m 4,960 ft / 1,512 m 182.40° 168.73° Unknown 0 ft / 0 m 0 ft / 0 m
29 148 ft / 45 m 8,967 ft / 2,733 m 302.09° 288.42° Asphalt 0 ft / 0 m 194 ft / 59 m
35 194 ft / 59 m 4,960 ft / 1,512 m 2.40° 348.73° Unknown 0 ft / 0 m 0 ft / 0 m

Map

Weather


0- 5 10 15 20 25 30 35+ Temperature / ° C

Clouds and Precipitation
Forecast for 2017-12-11 00:00 UTC. Updated an hour ago

Ground ~20,000 ft ~40,000 ft Winds

METAR

NFTF 110000Z 15007KT 9999 FEW017TCU 27/20 Q1009

TAF

TAF NFTF 102301Z 1100/1124 13008KT 9999 FEW008 SCT016

Frequencies

Ground 121.90 MHz GND
Approach 118.50 MHz APP
Tower 118.50 MHz TWR
Warning: Do not use this data for real-world aviation or navigation. No guarantee of current accuracy is given.